createdAt,value
2023-04-26T00:02:21.884Z,2.30
2023-04-26T00:04:56.437Z,2.37
2023-04-26T00:07:28.609Z,2.47
2023-04-26T00:09:56.526Z,2.97
2023-04-26T00:12:25.702Z,2.93
2023-04-26T00:14:53.677Z,2.40
2023-04-26T00:17:21.504Z,2.40
2023-04-26T00:19:49.705Z,2.67
2023-04-26T00:22:17.546Z,2.40
2023-04-26T00:24:45.662Z,3.37
2023-04-26T00:27:13.513Z,2.13
2023-04-26T00:29:42.984Z,3.00
2023-04-26T00:32:10.947Z,2.40
2023-04-26T00:34:39.347Z,2.57
2023-04-26T00:37:07.374Z,2.30
2023-04-26T00:39:35.179Z,2.93
2023-04-26T00:42:03.184Z,2.80
2023-04-26T00:44:31.025Z,2.90
2023-04-26T00:47:00.424Z,2.53
2023-04-26T00:49:28.564Z,2.97
2023-04-26T00:51:56.612Z,2.83
2023-04-26T00:54:25.732Z,2.50
2023-04-26T00:56:53.949Z,2.60
2023-04-26T00:59:22.253Z,2.93
2023-04-26T01:01:50.578Z,2.50
2023-04-26T01:04:20.073Z,2.47
2023-04-26T01:06:48.727Z,2.40
2023-04-26T01:09:16.708Z,2.63
2023-04-26T01:11:45.649Z,2.93
2023-04-26T01:14:14.179Z,3.30
2023-04-26T01:16:42.109Z,3.17
2023-04-26T01:19:12.378Z,2.67
2023-04-26T01:21:41.845Z,3.00
2023-04-26T01:24:12.998Z,2.70
2023-04-26T01:26:45.575Z,3.10
2023-04-26T01:29:18.605Z,3.13
2023-04-26T01:31:46.840Z,2.50
2023-04-26T01:34:15.270Z,2.93
2023-04-26T01:36:43.480Z,3.10
2023-04-26T01:39:13.109Z,3.00
2023-04-26T01:41:41.139Z,2.63
2023-04-26T01:44:08.965Z,3.03
2023-04-26T01:46:36.837Z,2.77
2023-04-26T01:49:04.886Z,2.97
2023-04-26T01:51:32.728Z,3.27
2023-04-26T01:54:00.732Z,2.80
2023-04-26T01:56:30.046Z,2.97
2023-04-26T01:58:59.184Z,3.27
2023-04-26T02:01:27.052Z,3.30
2023-04-26T02:03:54.932Z,2.93
2023-04-26T02:06:22.832Z,3.17
2023-04-26T02:08:51.089Z,3.20
2023-04-26T02:11:19.379Z,3.17
2023-04-26T02:13:48.627Z,3.20
2023-04-26T02:16:16.947Z,3.67
2023-04-26T02:18:45.403Z,3.37
2023-04-26T02:21:13.596Z,3.73
2023-04-26T02:23:41.632Z,3.90
2023-04-26T02:26:09.460Z,3.30
2023-04-26T02:28:37.359Z,4.10
2023-04-26T02:31:06.839Z,3.40
2023-04-26T02:33:35.158Z,3.50
2023-04-26T02:36:05.315Z,3.37
2023-04-26T02:38:34.613Z,3.13
2023-04-26T02:41:03.170Z,3.47
2023-04-26T02:43:31.358Z,4.20
2023-04-26T02:46:01.081Z,3.23
2023-04-26T02:48:30.214Z,3.93
2023-04-26T02:50:58.087Z,4.03
2023-04-26T02:53:25.884Z,4.00
2023-04-26T02:55:53.691Z,4.73
2023-04-26T02:58:21.531Z,4.53
2023-04-26T03:00:49.791Z,4.53
2023-04-26T03:03:17.986Z,3.90
2023-04-26T03:05:47.624Z,3.67
2023-04-26T03:08:16.039Z,4.87
2023-04-26T03:10:45.633Z,5.30
2023-04-26T03:13:13.578Z,4.80
2023-04-26T03:15:45.647Z,5.07
2023-04-26T03:18:13.531Z,4.90
2023-04-26T03:20:41.906Z,4.07
2023-04-26T03:23:11.240Z,4.57
2023-04-26T03:25:39.050Z,4.77
2023-04-26T03:28:07.053Z,4.40
2023-04-26T03:30:34.930Z,4.93
2023-04-26T03:33:02.830Z,4.50
2023-04-26T03:35:30.789Z,4.40
2023-04-26T03:37:58.852Z,4.47
2023-04-26T03:40:28.063Z,4.73
2023-04-26T03:42:55.953Z,4.53
2023-04-26T03:45:24.653Z,4.47
2023-04-26T03:47:52.558Z,4.40
2023-04-26T03:50:20.571Z,5.10
2023-04-26T03:52:48.706Z,4.90
2023-04-26T03:55:16.896Z,4.50
2023-04-26T03:57:46.033Z,4.90
2023-04-26T04:00:15.282Z,5.17
2023-04-26T04:02:43.948Z,5.37
2023-04-26T04:05:12.019Z,5.07
2023-04-26T04:07:39.915Z,4.90
2023-04-26T04:10:10.586Z,4.83
2023-04-26T04:12:38.508Z,4.73
2023-04-26T04:15:09.186Z,4.87
2023-04-26T04:17:38.596Z,5.27
2023-04-26T04:20:08.749Z,4.83
2023-04-26T04:22:36.549Z,4.33
2023-04-26T04:25:04.733Z,4.77
2023-04-26T04:27:32.570Z,4.93
2023-04-26T04:30:03.599Z,4.30
2023-04-26T04:32:34.030Z,5.10
2023-04-26T07:26:29.788Z,2.20
2023-04-26T07:28:58.103Z,2.00
2023-04-26T07:31:25.940Z,2.60
2023-04-26T07:33:54.206Z,3.17
2023-04-26T07:36:23.815Z,3.03
2023-04-26T07:38:53.118Z,2.83
2023-04-26T07:41:21.039Z,2.20
2023-04-26T07:43:51.946Z,2.57
2023-04-26T07:46:20.147Z,2.33
2023-04-26T07:48:48.077Z,2.50
2023-04-26T07:51:17.105Z,2.07
2023-04-26T07:53:45.246Z,2.37
2023-04-26T07:56:13.476Z,2.20
2023-04-26T07:58:41.466Z,2.53
2023-04-26T08:01:11.736Z,2.33
2023-04-26T08:03:39.766Z,2.60
2023-04-26T08:06:08.845Z,2.60
2023-04-26T08:08:42.724Z,2.80
2023-04-26T08:11:10.683Z,2.00
2023-04-26T08:13:38.698Z,2.30
2023-04-26T08:16:07.276Z,2.17
2023-04-26T08:18:36.848Z,2.03
2023-04-26T08:21:05.052Z,2.13
2023-04-26T08:23:35.732Z,1.80
2023-04-26T08:26:03.849Z,1.93
2023-04-26T08:28:31.840Z,1.70
2023-04-26T08:30:59.754Z,1.73
2023-04-26T08:33:27.747Z,1.73
2023-04-26T08:35:57.078Z,2.20
2023-04-26T08:38:25.276Z,1.40
2023-04-26T08:40:55.847Z,1.33
2023-04-26T08:43:24.216Z,1.50
2023-04-26T08:45:52.505Z,1.80
2023-04-26T08:48:21.758Z,1.50
2023-04-26T08:50:50.853Z,1.60
2023-04-26T08:53:20.099Z,1.30
2023-04-26T08:55:50.317Z,1.57
2023-04-26T08:58:18.949Z,1.50
2023-04-26T09:00:47.835Z,1.50
2023-04-26T09:03:18.407Z,1.40
2023-04-26T09:05:46.825Z,1.50
2023-04-26T09:08:18.304Z,1.40
2023-04-26T09:10:48.750Z,1.30
2023-04-26T09:13:16.610Z,1.20
2023-04-26T09:15:44.893Z,1.07
2023-04-26T09:18:20.131Z,1.10
2023-04-26T09:21:03.534Z,1.50
2023-04-26T09:23:31.658Z,1.53
2023-04-26T09:26:19.131Z,1.53
2023-04-26T09:28:47.850Z,1.10
2023-04-26T09:31:38.116Z,1.60
2023-04-26T09:34:06.280Z,1.00
2023-04-26T09:36:34.189Z,2.33
2023-04-26T09:39:02.110Z,1.10
2023-04-26T09:41:45.701Z,1.80
2023-04-26T09:44:23.751Z,1.50
2023-04-26T09:47:02.648Z,1.30
2023-04-26T09:49:34.818Z,1.33
2023-04-26T09:52:06.829Z,1.97
2023-04-26T09:54:46.037Z,1.77
2023-04-26T09:57:16.797Z,1.57
2023-04-26T09:59:50.346Z,1.90
2023-04-26T10:02:21.896Z,1.23
2023-04-26T10:04:52.024Z,1.20
2023-04-26T10:07:21.759Z,1.40
2023-04-26T10:09:50.661Z,2.20
2023-04-26T10:12:21.034Z,1.90
2023-04-26T10:14:49.807Z,1.70
2023-04-26T10:17:20.443Z,1.27
2023-04-26T10:19:53.451Z,1.60
2023-04-26T10:22:25.257Z,1.20
2023-04-26T10:24:55.761Z,0.87
2023-04-26T10:27:51.028Z,1.30
2023-04-26T10:30:24.012Z,1.20
2023-04-26T10:33:23.581Z,1.30
2023-04-26T10:36:07.982Z,1.00
2023-04-26T10:38:37.249Z,1.03
2023-04-26T10:41:31.383Z,0.88
2023-04-26T10:44:22.960Z,1.30
2023-04-26T10:46:53.828Z,1.30
2023-04-26T10:49:26.303Z,1.20
2023-04-26T10:52:14.844Z,1.20
2023-04-26T10:54:56.851Z,1.40
2023-04-26T10:57:45.871Z,1.30
2023-04-26T11:00:20.907Z,1.37
2023-04-26T11:03:00.066Z,1.00
2023-04-26T11:05:35.701Z,6.63
2023-04-26T11:08:09.105Z,1.20
2023-04-26T11:10:38.998Z,1.60
2023-04-26T11:13:06.903Z,1.37
2023-04-26T11:15:36.839Z,1.97
2023-04-26T11:18:05.830Z,2.97
2023-04-26T11:20:34.697Z,1.93
2023-04-26T11:23:02.784Z,1.40
2023-04-26T11:25:31.301Z,1.30
2023-04-26T11:28:01.248Z,1.47
2023-04-26T11:30:32.699Z,1.40
2023-04-26T11:33:02.843Z,1.63
2023-04-26T11:35:30.986Z,1.23
2023-04-26T11:38:04.485Z,1.50
2023-04-26T11:40:33.366Z,1.27
2023-04-26T11:43:02.736Z,1.70
2023-04-26T11:45:32.394Z,1.40
2023-04-26T11:48:02.791Z,1.37
2023-04-26T11:50:32.451Z,1.10
2023-04-26T11:53:02.561Z,1.10
2023-04-26T11:55:32.198Z,0.93
2023-04-26T11:58:00.328Z,1.13
2023-04-26T12:00:28.853Z,0.73
2023-04-26T12:02:58.004Z,1.10
2023-04-26T12:05:30.628Z,1.13
2023-04-26T12:08:00.028Z,1.08
2023-04-26T12:10:29.480Z,1.10
2023-04-26T12:12:59.616Z,1.15
2023-04-26T12:15:30.979Z,1.20
2023-04-26T12:18:01.106Z,1.13
2023-04-26T12:20:32.393Z,1.30
2023-04-26T12:23:02.007Z,1.30
2023-04-26T12:25:30.645Z,1.55
2023-04-26T12:27:58.561Z,4.00
2023-04-26T12:30:27.798Z,1.80
2023-04-26T12:33:02.763Z,1.67
2023-04-26T12:35:38.999Z,1.20
2023-04-26T12:38:06.813Z,1.90
2023-04-26T12:40:34.741Z,1.30
2023-04-26T12:43:02.556Z,1.50
2023-04-26T12:45:30.373Z,1.25
2023-04-26T12:47:58.774Z,1.00
2023-04-26T12:50:27.636Z,1.33
2023-04-26T12:52:57.905Z,1.48
2023-04-26T12:55:25.981Z,1.40
2023-04-26T12:57:54.233Z,1.10
2023-04-26T13:00:22.651Z,1.38
2023-04-26T13:02:51.015Z,1.50
2023-04-26T13:05:19.042Z,1.40
2023-04-26T13:07:47.868Z,1.27
2023-04-26T13:10:17.350Z,1.67
2023-04-26T13:12:45.221Z,1.35
2023-04-26T13:15:14.022Z,1.02
2023-04-26T13:17:44.694Z,1.30
2023-04-26T13:20:13.822Z,1.20
2023-04-26T13:22:43.222Z,1.30
2023-04-26T13:25:13.079Z,1.20
2023-04-26T13:27:42.476Z,1.48
2023-04-26T13:30:11.961Z,1.30
2023-04-26T13:32:39.897Z,1.17
2023-04-26T13:35:11.982Z,1.33
2023-04-26T13:37:40.061Z,1.33
2023-04-26T13:40:11.559Z,1.30
2023-04-26T13:42:39.657Z,1.20
2023-04-26T13:45:10.630Z,1.67
2023-04-26T13:47:38.596Z,1.67
2023-04-26T13:50:07.440Z,1.65
2023-04-26T13:52:35.394Z,1.55
2023-04-26T13:55:04.371Z,1.40
2023-04-26T13:57:32.563Z,1.88
2023-04-26T14:00:00.348Z,1.48
2023-04-26T14:02:29.652Z,1.60
2023-04-26T14:04:57.773Z,2.00
2023-04-26T14:07:26.244Z,1.65
2023-04-26T14:09:54.042Z,1.73
2023-04-26T14:12:21.902Z,1.60
2023-04-26T14:14:50.042Z,1.80
2023-04-26T14:17:17.947Z,1.90
2023-04-26T14:19:47.726Z,1.48
2023-04-26T14:22:17.715Z,1.48
2023-04-26T14:24:46.200Z,1.45
2023-04-26T14:27:14.181Z,1.67
2023-04-26T14:29:42.138Z,1.70
2023-04-26T14:32:10.060Z,1.98
2023-04-26T14:34:39.166Z,1.42
2023-04-26T14:37:08.507Z,1.60
2023-04-26T14:39:37.130Z,1.75
2023-04-26T14:42:05.364Z,1.73
2023-04-26T14:44:33.201Z,1.73
2023-04-26T14:47:01.533Z,1.70
2023-04-26T14:49:29.409Z,1.98
2023-04-26T14:51:57.298Z,1.48
2023-04-26T14:54:26.556Z,1.73
2023-04-26T14:56:54.477Z,1.52
2023-04-26T14:59:22.429Z,1.70
2023-04-26T15:01:53.164Z,1.75
2023-04-26T15:04:21.259Z,1.60
2023-04-26T15:06:49.795Z,1.10
2023-04-26T15:09:17.856Z,1.50
2023-04-26T15:11:47.292Z,1.80
2023-04-26T15:14:16.296Z,1.80
2023-04-26T15:16:45.301Z,1.33
2023-04-26T15:19:13.929Z,1.67
2023-04-26T15:21:42.264Z,1.60
2023-04-26T15:24:10.682Z,1.42
2023-04-26T15:26:38.572Z,1.70
2023-04-26T15:29:07.784Z,1.70
2023-04-26T15:31:35.836Z,1.92
2023-04-26T15:34:04.555Z,2.03
2023-04-26T15:36:32.604Z,2.10
2023-04-26T15:39:00.458Z,2.10
2023-04-26T15:41:28.303Z,1.40
2023-04-26T15:43:56.460Z,1.35
2023-04-26T15:46:25.752Z,1.60
2023-04-26T15:48:53.679Z,1.25
2023-04-26T15:51:21.517Z,1.30
2023-04-26T15:53:51.790Z,1.23
2023-04-26T15:56:20.045Z,1.60
2023-04-26T15:58:48.924Z,1.75
2023-04-26T16:01:17.193Z,1.42
2023-04-26T16:03:47.715Z,1.65
2023-04-26T16:06:16.653Z,1.55
2023-04-26T16:08:45.263Z,1.50
2023-04-26T16:11:13.992Z,1.33
2023-04-26T16:13:41.848Z,1.42
2023-04-26T16:16:10.985Z,1.65
2023-04-26T16:18:40.156Z,1.70
2023-04-26T16:21:10.626Z,1.23
2023-04-26T16:23:38.653Z,2.05
2023-04-26T16:26:06.953Z,1.15
2023-04-26T16:28:34.897Z,1.50
2023-04-26T16:31:02.856Z,1.38
2023-04-26T16:33:30.868Z,1.60
2023-04-26T16:35:58.742Z,1.20
2023-04-26T16:38:27.895Z,1.45
2023-04-26T16:40:58.040Z,1.40
2023-04-26T16:43:26.778Z,1.52
2023-04-26T16:46:02.022Z,1.67
2023-04-26T16:48:32.650Z,1.55
2023-04-26T16:51:00.753Z,1.98
2023-04-26T16:53:30.518Z,1.58
2023-04-26T16:55:58.664Z,1.30
2023-04-26T16:58:26.695Z,1.63
2023-04-26T17:00:54.771Z,1.27
2023-04-26T17:03:23.847Z,1.90
2023-04-26T17:05:52.073Z,1.60
2023-04-26T17:08:20.704Z,1.58
2023-04-26T17:10:51.649Z,1.30
2023-04-26T17:13:19.788Z,1.85
2023-04-26T17:15:47.899Z,1.37
2023-04-26T17:18:16.033Z,1.50
2023-04-26T17:20:43.867Z,2.00
2023-04-26T17:23:11.709Z,1.70
2023-04-26T17:25:39.835Z,1.40
2023-04-26T17:28:09.895Z,1.90
2023-04-26T17:30:38.229Z,1.60
2023-04-26T17:33:07.498Z,1.50
2023-04-26T17:35:35.825Z,1.75
2023-04-26T17:38:03.999Z,1.65
2023-04-26T17:40:31.891Z,1.53
2023-04-26T17:42:59.763Z,1.37
2023-04-26T17:45:29.110Z,1.33
2023-04-26T17:47:56.922Z,1.70
2023-04-26T17:50:24.756Z,1.90
2023-04-26T17:52:52.557Z,1.50
2023-04-26T17:55:20.703Z,1.47
2023-04-26T17:57:48.670Z,1.70
2023-04-26T18:00:17.220Z,2.43
2023-04-26T18:02:46.629Z,2.00
2023-04-26T18:05:15.328Z,2.13
2023-04-26T18:07:43.174Z,1.53
2023-04-26T18:10:11.563Z,1.80
2023-04-26T18:12:39.784Z,1.60
2023-04-26T18:15:08.811Z,1.67
2023-04-26T18:17:36.891Z,1.77
2023-04-26T18:20:07.524Z,2.30
2023-04-26T18:22:35.329Z,1.87
2023-04-26T18:25:03.778Z,1.50
2023-04-26T18:27:31.760Z,1.77
2023-04-26T18:30:01.018Z,2.07
2023-04-26T18:32:29.032Z,1.90
2023-04-26T18:34:56.919Z,1.47
2023-04-26T18:37:26.215Z,1.60
2023-04-26T18:39:54.036Z,1.60
2023-04-26T18:42:21.782Z,1.87
2023-04-26T18:44:49.869Z,1.57
2023-04-26T18:47:17.720Z,1.60
2023-04-26T18:49:48.125Z,2.20
2023-04-26T18:52:15.974Z,2.03
2023-04-26T18:54:45.456Z,2.07
2023-04-26T18:57:14.669Z,2.00
2023-04-26T18:59:42.554Z,1.93
2023-04-26T19:02:11.505Z,2.07
2023-04-26T19:04:40.296Z,1.70
2023-04-26T19:07:08.201Z,2.03
2023-04-26T19:09:50.542Z,1.80
2023-04-26T19:12:23.284Z,1.90
2023-04-26T19:14:51.211Z,2.03
2023-04-26T19:17:19.202Z,2.33
2023-04-26T19:19:47.605Z,2.00
2023-04-26T19:22:16.110Z,1.90
2023-04-26T19:24:44.062Z,1.87
2023-04-26T19:27:12.754Z,1.77
2023-04-26T19:29:41.938Z,1.63
2023-04-26T19:32:09.921Z,1.57
2023-04-26T19:34:38.811Z,2.00
2023-04-26T19:37:06.992Z,1.73
2023-04-26T19:39:34.794Z,1.80
2023-04-26T19:42:03.299Z,1.83
2023-04-26T19:44:31.333Z,1.80
2023-04-26T19:47:00.748Z,2.47
2023-04-26T19:49:29.217Z,4.73
2023-04-26T19:51:57.228Z,6.97
2023-04-26T19:54:25.391Z,5.77
2023-04-26T19:56:53.193Z,4.80
2023-04-26T19:59:21.005Z,6.13
2023-04-26T20:01:49.985Z,5.43
2023-04-26T20:04:21.862Z,5.57
2023-04-26T20:06:50.288Z,4.73
2023-04-26T20:09:18.123Z,3.40
2023-04-26T20:11:45.929Z,3.37
2023-04-26T20:14:14.093Z,2.80
2023-04-26T20:16:41.884Z,2.57
2023-04-26T20:19:10.233Z,2.47
2023-04-26T20:21:39.636Z,3.07
2023-04-26T20:24:08.099Z,2.37
2023-04-26T20:26:36.016Z,2.83
2023-04-26T20:29:03.827Z,3.10
2023-04-26T20:31:32.597Z,2.67
2023-04-26T20:34:00.927Z,3.27
2023-04-26T20:36:28.852Z,2.67
2023-04-26T20:38:57.979Z,2.83
2023-04-26T20:41:25.849Z,3.97
2023-04-26T20:43:53.742Z,3.93
2023-04-26T20:46:21.776Z,4.13
2023-04-26T20:48:49.882Z,4.37
2023-04-26T20:51:17.702Z,4.10
2023-04-26T20:53:46.165Z,4.70
2023-04-26T20:56:16.136Z,4.30
2023-04-26T20:58:44.185Z,4.00
2023-04-26T21:01:12.142Z,4.33
2023-04-26T21:03:40.088Z,4.03
2023-04-26T21:06:08.023Z,3.93
2023-04-26T21:08:36.991Z,4.30
2023-04-26T21:11:04.988Z,10.90
2023-04-26T21:13:34.150Z,5.03
2023-04-26T21:16:02.715Z,4.23
2023-04-26T21:18:30.713Z,3.23
2023-04-26T21:20:58.600Z,2.80
2023-04-26T21:23:26.673Z,4.37
2023-04-26T21:25:54.583Z,7.00
2023-04-26T21:28:23.112Z,6.30
2023-04-26T21:31:01.934Z,4.80
2023-04-26T21:33:29.827Z,4.03
2023-04-26T21:35:59.654Z,4.23
2023-04-26T21:38:28.628Z,4.23
2023-04-26T21:40:56.459Z,3.80
2023-04-26T21:43:24.996Z,3.60
2023-04-26T21:45:57.851Z,3.00
2023-04-26T21:48:26.166Z,2.87
2023-04-26T21:50:54.113Z,2.80
2023-04-26T21:53:21.966Z,2.70
2023-04-26T21:55:52.771Z,2.43
2023-04-26T21:58:20.937Z,2.60
2023-04-26T22:00:49.275Z,2.90
2023-04-26T22:03:18.696Z,2.63
2023-04-26T22:05:46.802Z,2.30
2023-04-26T22:08:14.748Z,2.03
2023-04-26T22:10:42.976Z,2.17
2023-04-26T22:13:10.853Z,2.00
2023-04-26T22:15:38.760Z,2.27
2023-04-26T22:18:06.796Z,2.30
2023-04-26T22:20:35.945Z,2.70
2023-04-26T22:23:03.724Z,2.87
2023-04-26T22:25:31.657Z,2.43
2023-04-26T22:27:59.539Z,2.27
2023-04-26T22:30:27.422Z,2.63
2023-04-26T22:32:57.976Z,2.63
2023-04-26T22:35:27.568Z,3.10
2023-04-26T22:37:57.050Z,2.63
2023-04-26T22:40:25.025Z,2.70
2023-04-26T22:42:53.921Z,2.50
2023-04-26T22:45:22.840Z,2.63
2023-04-26T22:47:51.012Z,2.80
2023-04-26T22:50:19.319Z,3.17
2023-04-26T22:52:47.594Z,2.47
2023-04-26T22:55:16.777Z,2.83
2023-04-26T22:57:44.608Z,2.47
2023-04-26T23:00:14.488Z,2.20
2023-04-26T23:02:42.499Z,2.20
2023-04-26T23:05:10.980Z,1.93
2023-04-26T23:07:39.157Z,2.17
2023-04-26T23:10:08.029Z,1.70
2023-04-26T23:12:37.289Z,1.80
2023-04-26T23:15:06.176Z,2.10
2023-04-26T23:17:34.681Z,1.80
2023-04-26T23:20:08.049Z,2.30
2023-04-26T23:22:35.805Z,2.10
2023-04-26T23:25:03.656Z,1.90
2023-04-26T23:27:31.542Z,2.13
2023-04-26T23:30:00.760Z,2.03
2023-04-26T23:32:28.743Z,1.67
2023-04-26T23:34:56.569Z,2.13
2023-04-26T23:37:24.392Z,2.20
2023-04-26T23:39:52.389Z,2.10
2023-04-26T23:42:20.496Z,1.50
2023-04-26T23:44:48.637Z,1.90
2023-04-26T23:47:17.882Z,2.10
2023-04-26T23:49:45.968Z,1.73
2023-04-26T23:52:14.320Z,2.00
2023-04-26T23:54:42.159Z,1.70
2023-04-26T23:57:09.949Z,2.00
2023-04-26T23:59:37.784Z,2.10
